sensor_id;sensor_type;location;lat;lon;timestamp;temperature;humidity
9371;DHT22;4725;48.384;8.984;2023-04-06T00:00:32;0.70;99.90
9371;DHT22;4725;48.384;8.984;2023-04-06T00:02:59;0.50;99.90
9371;DHT22;4725;48.384;8.984;2023-04-06T00:05:26;0.30;99.90
9371;DHT22;4725;48.384;8.984;2023-04-06T00:07:53;0.10;99.90
9371;DHT22;4725;48.384;8.984;2023-04-06T00:10:21;0.00;99.90
9371;DHT22;4725;48.384;8.984;2023-04-06T00:12:49;-0.10;99.90
9371;DHT22;4725;48.384;8.984;2023-04-06T00:15:16;-0.10;99.90
9371;DHT22;4725;48.384;8.984;2023-04-06T00:17:43;-0.10;99.90
9371;DHT22;4725;48.384;8.984;2023-04-06T00:20:11;-0.20;99.90
9371;DHT22;4725;48.384;8.984;2023-04-06T00:22:38;-0.30;99.90
9371;DHT22;4725;48.384;8.984;2023-04-06T00:25:06;-0.30;99.90
9371;DHT22;4725;48.384;8.984;2023-04-06T00:27:33;-0.10;99.90
9371;DHT22;4725;48.384;8.984;2023-04-06T00:30:01;-0.20;99.90
9371;DHT22;4725;48.384;8.984;2023-04-06T00:32:28;-0.20;99.90
9371;DHT22;4725;48.384;8.984;2023-04-06T00:34:55;-0.30;99.90
9371;DHT22;4725;48.384;8.984;2023-04-06T00:37:22;-0.20;99.90
9371;DHT22;4725;48.384;8.984;2023-04-06T00:39:49;-0.40;99.90
9371;DHT22;4725;48.384;8.984;2023-04-06T00:42:18;-0.40;99.90
9371;DHT22;4725;48.384;8.984;2023-04-06T00:44:50;-0.50;99.90
9371;DHT22;4725;48.384;8.984;2023-04-06T00:47:19;-0.50;99.90
9371;DHT22;4725;48.384;8.984;2023-04-06T00:49:46;-0.40;99.90
9371;DHT22;4725;48.384;8.984;2023-04-06T00:52:13;-0.40;99.90
9371;DHT22;4725;48.384;8.984;2023-04-06T00:54:41;-0.40;99.90
9371;DHT22;4725;48.384;8.984;2023-04-06T00:57:08;-0.50;99.90
9371;DHT22;4725;48.384;8.984;2023-04-06T00:59:35;-0.70;99.90
9371;DHT22;4725;48.384;8.984;2023-04-06T01:02:02;-0.70;99.90
9371;DHT22;4725;48.384;8.984;2023-04-06T01:04:31;-0.60;99.90
9371;DHT22;4725;48.384;8.984;2023-04-06T01:06:58;-0.60;99.90
9371;DHT22;4725;48.384;8.984;2023-04-06T01:11:52;-0.80;99.90
9371;DHT22;4725;48.384;8.984;2023-04-06T01:14:19;-0.80;99.90
9371;DHT22;4725;48.384;8.984;2023-04-06T01:16:46;-0.80;99.90
9371;DHT22;4725;48.384;8.984;2023-04-06T01:19:14;-0.70;99.90
9371;DHT22;4725;48.384;8.984;2023-04-06T01:21:42;1.30;99.90
9371;DHT22;4725;48.384;8.984;2023-04-06T01:24:10;-0.70;99.90
9371;DHT22;4725;48.384;8.984;2023-04-06T01:26:38;-0.60;99.90
9371;DHT22;4725;48.384;8.984;2023-04-06T01:29:05;-0.60;99.90
9371;DHT22;4725;48.384;8.984;2023-04-06T01:31:32;-0.60;99.90
9371;DHT22;4725;48.384;8.984;2023-04-06T01:33:59;-0.60;99.90
9371;DHT22;4725;48.384;8.984;2023-04-06T01:36:26;-0.70;99.90
9371;DHT22;4725;48.384;8.984;2023-04-06T01:38:53;-0.70;99.90
9371;DHT22;4725;48.384;8.984;2023-04-06T01:41:22;-0.70;99.90
9371;DHT22;4725;48.384;8.984;2023-04-06T01:43:49;-0.80;99.90
9371;DHT22;4725;48.384;8.984;2023-04-06T01:46:20;-0.80;99.90
9371;DHT22;4725;48.384;8.984;2023-04-06T01:48:47;-0.80;99.90
9371;DHT22;4725;48.384;8.984;2023-04-06T01:51:14;-0.80;99.90
9371;DHT22;4725;48.384;8.984;2023-04-06T01:53:41;-0.70;99.90
9371;DHT22;4725;48.384;8.984;2023-04-06T01:56:08;-0.70;99.90
9371;DHT22;4725;48.384;8.984;2023-04-06T01:58:37;-0.80;99.90
9371;DHT22;4725;48.384;8.984;2023-04-06T02:01:04;-0.70;99.90
9371;DHT22;4725;48.384;8.984;2023-04-06T02:03:31;-0.80;99.90
9371;DHT22;4725;48.384;8.984;2023-04-06T02:08:26;-1.00;99.90
9371;DHT22;4725;48.384;8.984;2023-04-06T02:10:53;-0.60;99.90
9371;DHT22;4725;48.384;8.984;2023-04-06T02:13:20;-1.10;99.90
9371;DHT22;4725;48.384;8.984;2023-04-06T02:15:48;-1.10;99.90
9371;DHT22;4725;48.384;8.984;2023-04-06T02:18:15;-1.10;99.90
9371;DHT22;4725;48.384;8.984;2023-04-06T02:20:43;-1.10;99.90
9371;DHT22;4725;48.384;8.984;2023-04-06T02:23:11;-1.20;99.90
9371;DHT22;4725;48.384;8.984;2023-04-06T02:25:38;-1.20;99.90
9371;DHT22;4725;48.384;8.984;2023-04-06T02:28:05;-1.10;99.90
9371;DHT22;4725;48.384;8.984;2023-04-06T02:30:32;-1.10;99.90
9371;DHT22;4725;48.384;8.984;2023-04-06T02:33:01;-1.10;99.90
9371;DHT22;4725;48.384;8.984;2023-04-06T02:35:28;-1.10;99.90
9371;DHT22;4725;48.384;8.984;2023-04-06T02:37:56;-1.10;99.90
9371;DHT22;4725;48.384;8.984;2023-04-06T02:40:23;-1.00;99.90
9371;DHT22;4725;48.384;8.984;2023-04-06T02:42:50;-1.00;99.90
9371;DHT22;4725;48.384;8.984;2023-04-06T02:45:17;-1.00;99.90
9371;DHT22;4725;48.384;8.984;2023-04-06T02:47:44;0.20;99.90
9371;DHT22;4725;48.384;8.984;2023-04-06T02:50:12;-1.00;99.90
9371;DHT22;4725;48.384;8.984;2023-04-06T02:52:39;-1.10;99.90
9371;DHT22;4725;48.384;8.984;2023-04-06T02:55:07;-1.20;99.90
9371;DHT22;4725;48.384;8.984;2023-04-06T02:57:34;-3.70;99.90
9371;DHT22;4725;48.384;8.984;2023-04-06T03:00:01;-1.30;99.90
9371;DHT22;4725;48.384;8.984;2023-04-06T03:02:28;-1.20;99.90
9371;DHT22;4725;48.384;8.984;2023-04-06T03:04:55;-1.30;99.90
9371;DHT22;4725;48.384;8.984;2023-04-06T03:07:24;-1.40;99.90
9371;DHT22;4725;48.384;8.984;2023-04-06T03:09:50;-1.40;99.90
9371;DHT22;4725;48.384;8.984;2023-04-06T03:12:17;-1.50;99.90
9371;DHT22;4725;48.384;8.984;2023-04-06T03:14:44;-1.50;99.90
9371;DHT22;4725;48.384;8.984;2023-04-06T03:17:11;-1.50;99.90
9371;DHT22;4725;48.384;8.984;2023-04-06T03:19:38;-1.60;99.90
9371;DHT22;4725;48.384;8.984;2023-04-06T03:22:05;-1.60;99.90
9371;DHT22;4725;48.384;8.984;2023-04-06T03:24:34;-1.60;99.90
9371;DHT22;4725;48.384;8.984;2023-04-06T03:27:01;-1.60;99.90
9371;DHT22;4725;48.384;8.984;2023-04-06T03:34:24;-1.90;99.90
9371;DHT22;4725;48.384;8.984;2023-04-06T03:36:51;-1.90;99.90
9371;DHT22;4725;48.384;8.984;2023-04-06T03:39:18;-1.70;99.90
9371;DHT22;4725;48.384;8.984;2023-04-06T03:41:47;0.30;99.90
9371;DHT22;4725;48.384;8.984;2023-04-06T03:44:14;-1.80;99.90
9371;DHT22;4725;48.384;8.984;2023-04-06T03:46:42;-1.90;99.90
9371;DHT22;4725;48.384;8.984;2023-04-06T03:49:09;-2.00;99.90
9371;DHT22;4725;48.384;8.984;2023-04-06T03:51:36;-2.00;99.90
9371;DHT22;4725;48.384;8.984;2023-04-06T03:54:03;-2.00;99.90
9371;DHT22;4725;48.384;8.984;2023-04-06T03:56:30;-2.10;99.90
9371;DHT22;4725;48.384;8.984;2023-04-06T03:58:58;-2.30;99.90
9371;DHT22;4725;48.384;8.984;2023-04-06T04:01:27;-2.40;99.90
9371;DHT22;4725;48.384;8.984;2023-04-06T04:03:54;-2.20;99.90
9371;DHT22;4725;48.384;8.984;2023-04-06T04:06:21;-2.20;99.90
9371;DHT22;4725;48.384;8.984;2023-04-06T04:08:48;-1.70;99.90
9371;DHT22;4725;48.384;8.984;2023-04-06T04:11:15;-2.10;99.90
9371;DHT22;4725;48.384;8.984;2023-04-06T04:13:42;-2.20;99.90
9371;DHT22;4725;48.384;8.984;2023-04-06T04:16:11;-2.30;99.90
9371;DHT22;4725;48.384;8.984;2023-04-06T04:18:38;-2.30;99.90
9371;DHT22;4725;48.384;8.984;2023-04-06T04:21:05;-2.30;99.90
9371;DHT22;4725;48.384;8.984;2023-04-06T04:23:32;-2.30;99.90
9371;DHT22;4725;48.384;8.984;2023-04-06T04:25:59;-2.10;99.90
9371;DHT22;4725;48.384;8.984;2023-04-06T04:28:25;-2.30;99.90
9371;DHT22;4725;48.384;8.984;2023-04-06T04:30:52;-2.30;99.90
9371;DHT22;4725;48.384;8.984;2023-04-06T04:33:21;-2.40;99.90
9371;DHT22;4725;48.384;8.984;2023-04-06T04:35:48;-2.60;99.90
9371;DHT22;4725;48.384;8.984;2023-04-06T04:38:15;-2.80;99.90
9371;DHT22;4725;48.384;8.984;2023-04-06T04:40:42;-3.00;99.90
9371;DHT22;4725;48.384;8.984;2023-04-06T04:43:09;-2.80;99.90
9371;DHT22;4725;48.384;8.984;2023-04-06T04:45:36;-2.90;99.90
9371;DHT22;4725;48.384;8.984;2023-04-06T04:48:03;-2.90;99.90
9371;DHT22;4725;48.384;8.984;2023-04-06T04:50:32;-3.10;99.90
9371;DHT22;4725;48.384;8.984;2023-04-06T04:52:59;-3.40;99.90
9371;DHT22;4725;48.384;8.984;2023-04-06T04:55:26;-3.50;99.90
9371;DHT22;4725;48.384;8.984;2023-04-06T04:57:54;-3.80;99.90
9371;DHT22;4725;48.384;8.984;2023-04-06T05:00:22;-3.90;99.90
9371;DHT22;4725;48.384;8.984;2023-04-06T05:02:49;-3.90;99.90
9371;DHT22;4725;48.384;8.984;2023-04-06T05:05:16;-3.90;99.90
9371;DHT22;4725;48.384;8.984;2023-04-06T05:07:44;-3.90;99.90
9371;DHT22;4725;48.384;8.984;2023-04-06T05:10:11;-3.90;99.90
9371;DHT22;4725;48.384;8.984;2023-04-06T05:12:38;-3.90;99.90
9371;DHT22;4725;48.384;8.984;2023-04-06T05:15:06;-3.80;99.90
9371;DHT22;4725;48.384;8.984;2023-04-06T05:17:34;-3.70;99.90
9371;DHT22;4725;48.384;8.984;2023-04-06T05:20:01;-3.50;99.90
9371;DHT22;4725;48.384;8.984;2023-04-06T05:22:28;-3.30;99.90
9371;DHT22;4725;48.384;8.984;2023-04-06T05:24:56;-3.30;99.90
9371;DHT22;4725;48.384;8.984;2023-04-06T05:27:23;-3.40;99.90
9371;DHT22;4725;48.384;8.984;2023-04-06T05:29:50;-3.50;99.90
9371;DHT22;4725;48.384;8.984;2023-04-06T05:32:17;-3.50;99.90
9371;DHT22;4725;48.384;8.984;2023-04-06T05:34:48;-3.50;99.90
9371;DHT22;4725;48.384;8.984;2023-04-06T05:37:15;-3.50;99.90
9371;DHT22;4725;48.384;8.984;2023-04-06T05:39:42;-3.40;99.90
9371;DHT22;4725;48.384;8.984;2023-04-06T05:42:10;-3.30;99.90
9371;DHT22;4725;48.384;8.984;2023-04-06T05:44:37;-3.10;99.90
9371;DHT22;4725;48.384;8.984;2023-04-06T05:47:04;-2.90;99.90
9371;DHT22;4725;48.384;8.984;2023-04-06T05:49:31;-2.70;99.90
9371;DHT22;4725;48.384;8.984;2023-04-06T05:51:58;-2.70;99.90
9371;DHT22;4725;48.384;8.984;2023-04-06T05:54:25;-2.60;99.90
9371;DHT22;4725;48.384;8.984;2023-04-06T05:56:52;-2.40;99.90
9371;DHT22;4725;48.384;8.984;2023-04-06T05:59:21;-2.20;99.90
9371;DHT22;4725;48.384;8.984;2023-04-06T06:01:49;-2.20;99.90
9371;DHT22;4725;48.384;8.984;2023-04-06T06:04:16;-2.10;99.90
9371;DHT22;4725;48.384;8.984;2023-04-06T06:06:43;-2.00;99.90
9371;DHT22;4725;48.384;8.984;2023-04-06T06:09:10;-1.80;99.90
9371;DHT22;4725;48.384;8.984;2023-04-06T06:11:37;-1.70;99.90
9371;DHT22;4725;48.384;8.984;2023-04-06T06:14:04;-1.50;99.90
9371;DHT22;4725;48.384;8.984;2023-04-06T06:16:32;-1.30;99.90
9371;DHT22;4725;48.384;8.984;2023-04-06T06:18:59;-1.10;99.90
9371;DHT22;4725;48.384;8.984;2023-04-06T06:21:26;-1.00;99.90
9371;DHT22;4725;48.384;8.984;2023-04-06T06:23:53;-0.90;99.90
9371;DHT22;4725;48.384;8.984;2023-04-06T06:26:20;-0.70;99.90
9371;DHT22;4725;48.384;8.984;2023-04-06T06:28:47;-0.50;99.90
9371;DHT22;4725;48.384;8.984;2023-04-06T06:31:14;-0.50;99.90
9371;DHT22;4725;48.384;8.984;2023-04-06T06:33:43;-0.40;99.90
9371;DHT22;4725;48.384;8.984;2023-04-06T06:36:10;1.30;99.90
9371;DHT22;4725;48.384;8.984;2023-04-06T06:38:37;0.00;99.90
9371;DHT22;4725;48.384;8.984;2023-04-06T06:41:05;0.00;99.90
9371;DHT22;4725;48.384;8.984;2023-04-06T06:45:59;0.40;99.90
9371;DHT22;4725;48.384;8.984;2023-04-06T06:48:26;0.50;99.90
9371;DHT22;4725;48.384;8.984;2023-04-06T06:50:54;0.50;99.90
9371;DHT22;4725;48.384;8.984;2023-04-06T06:53:22;3.80;99.90
9371;DHT22;4725;48.384;8.984;2023-04-06T06:55:49;0.70;99.90
9371;DHT22;4725;48.384;8.984;2023-04-06T06:58:18;1.00;99.90
9371;DHT22;4725;48.384;8.984;2023-04-06T07:00:45;1.00;99.90
9371;DHT22;4725;48.384;8.984;2023-04-06T07:03:12;1.10;99.90
9371;DHT22;4725;48.384;8.984;2023-04-06T07:05:39;1.30;99.90
9371;DHT22;4725;48.384;8.984;2023-04-06T07:10:43;1.60;99.90
9371;DHT22;4725;48.384;8.984;2023-04-06T07:13:10;1.70;99.90
9371;DHT22;4725;48.384;8.984;2023-04-06T07:15:37;1.80;99.90
9371;DHT22;4725;48.384;8.984;2023-04-06T07:18:04;1.90;99.90
9371;DHT22;4725;48.384;8.984;2023-04-06T07:20:31;2.00;99.90
9371;DHT22;4725;48.384;8.984;2023-04-06T07:22:58;2.10;99.90
9371;DHT22;4725;48.384;8.984;2023-04-06T07:25:26;2.20;99.90
9371;DHT22;4725;48.384;8.984;2023-04-06T07:30:21;2.60;99.90
9371;DHT22;4725;48.384;8.984;2023-04-06T07:32:50;2.60;99.90
9371;DHT22;4725;48.384;8.984;2023-04-06T07:35:17;2.80;99.90
9371;DHT22;4725;48.384;8.984;2023-04-06T07:37:44;3.00;99.90
9371;DHT22;4725;48.384;8.984;2023-04-06T07:40:12;3.10;99.90
9371;DHT22;4725;48.384;8.984;2023-04-06T07:42:40;3.20;99.90
9371;DHT22;4725;48.384;8.984;2023-04-06T07:45:08;3.30;99.90
9371;DHT22;4725;48.384;8.984;2023-04-06T07:47:35;3.60;99.90
9371;DHT22;4725;48.384;8.984;2023-04-06T07:52:29;4.00;99.90
9371;DHT22;4725;48.384;8.984;2023-04-06T07:54:57;4.10;99.90
9371;DHT22;4725;48.384;8.984;2023-04-06T07:57:24;4.30;99.90
9371;DHT22;4725;48.384;8.984;2023-04-06T07:59:52;6.00;99.90
9371;DHT22;4725;48.384;8.984;2023-04-06T08:02:19;4.70;99.90
9371;DHT22;4725;48.384;8.984;2023-04-06T08:04:47;5.00;99.90
9371;DHT22;4725;48.384;8.984;2023-04-06T08:07:14;5.10;99.90
9371;DHT22;4725;48.384;8.984;2023-04-06T08:09:41;5.50;99.90
9371;DHT22;4725;48.384;8.984;2023-04-06T08:12:08;5.80;99.90
9371;DHT22;4725;48.384;8.984;2023-04-06T08:14:35;5.90;98.70
9371;DHT22;4725;48.384;8.984;2023-04-06T08:17:03;6.10;97.50
9371;DHT22;4725;48.384;8.984;2023-04-06T08:19:30;6.30;96.60
9371;DHT22;4725;48.384;8.984;2023-04-06T08:21:57;6.40;97.50
9371;DHT22;4725;48.384;8.984;2023-04-06T08:24:24;6.60;97.00
9371;DHT22;4725;48.384;8.984;2023-04-06T08:26:51;6.70;96.60
9371;DHT22;4725;48.384;8.984;2023-04-06T08:29:18;6.60;95.70
9371;DHT22;4725;48.384;8.984;2023-04-06T08:31:45;6.60;95.50
9371;DHT22;4725;48.384;8.984;2023-04-06T08:34:13;7.00;96.60
9371;DHT22;4725;48.384;8.984;2023-04-06T08:36:41;7.00;96.60
9371;DHT22;4725;48.384;8.984;2023-04-06T08:39:08;7.00;96.30
9371;DHT22;4725;48.384;8.984;2023-04-06T08:41:35;7.00;97.20
9371;DHT22;4725;48.384;8.984;2023-04-06T08:44:02;7.50;96.40
9371;DHT22;4725;48.384;8.984;2023-04-06T08:46:31;7.60;96.50
9371;DHT22;4725;48.384;8.984;2023-04-06T08:49:00;8.00;95.20
9371;DHT22;4725;48.384;8.984;2023-04-06T08:51:30;7.90;95.00
9371;DHT22;4725;48.384;8.984;2023-04-06T08:53:58;7.80;95.20
9371;DHT22;4725;48.384;8.984;2023-04-06T08:56:26;8.10;95.00
9371;DHT22;4725;48.384;8.984;2023-04-06T08:58:54;8.30;94.00
9371;DHT22;4725;48.384;8.984;2023-04-06T09:01:24;8.40;94.60
9371;DHT22;4725;48.384;8.984;2023-04-06T09:03:56;8.40;91.30
9371;DHT22;4725;48.384;8.984;2023-04-06T09:06:25;8.60;91.90
9371;DHT22;4725;48.384;8.984;2023-04-06T09:08:54;9.00;92.10
9371;DHT22;4725;48.384;8.984;2023-04-06T09:11:22;9.00;90.70
9371;DHT22;4725;48.384;8.984;2023-04-06T09:13:50;9.10;90.10
9371;DHT22;4725;48.384;8.984;2023-04-06T09:16:18;9.10;90.00
9371;DHT22;4725;48.384;8.984;2023-04-06T09:18:46;9.30;90.00
9371;DHT22;4725;48.384;8.984;2023-04-06T09:21:13;9.20;90.40
9371;DHT22;4725;48.384;8.984;2023-04-06T09:23:42;9.40;90.00
9371;DHT22;4725;48.384;8.984;2023-04-06T09:26:12;9.20;89.20
9371;DHT22;4725;48.384;8.984;2023-04-06T09:28:48;9.60;89.30
9371;DHT22;4725;48.384;8.984;2023-04-06T09:31:16;9.70;88.90
9371;DHT22;4725;48.384;8.984;2023-04-06T09:33:45;10.00;85.30
9371;DHT22;4725;48.384;8.984;2023-04-06T09:36:12;10.00;83.20
9371;DHT22;4725;48.384;8.984;2023-04-06T09:38:52;9.80;85.60
9371;DHT22;4725;48.384;8.984;2023-04-06T09:41:25;9.90;87.30
9371;DHT22;4725;48.384;8.984;2023-04-06T09:44:01;10.10;84.90
9371;DHT22;4725;48.384;8.984;2023-04-06T09:46:31;9.70;85.10
9371;DHT22;4725;48.384;8.984;2023-04-06T09:48:59;9.20;85.90
9371;DHT22;4725;48.384;8.984;2023-04-06T09:51:29;9.30;86.10
9371;DHT22;4725;48.384;8.984;2023-04-06T09:53:57;9.80;85.80
9371;DHT22;4725;48.384;8.984;2023-04-06T09:56:33;10.30;84.80
9371;DHT22;4725;48.384;8.984;2023-04-06T09:59:08;10.60;79.40
9371;DHT22;4725;48.384;8.984;2023-04-06T10:01:36;10.60;81.90
9371;DHT22;4725;48.384;8.984;2023-04-06T10:04:13;10.40;82.50
9371;DHT22;4725;48.384;8.984;2023-04-06T10:06:45;10.30;83.90
9371;DHT22;4725;48.384;8.984;2023-04-06T10:09:14;10.60;83.90
9371;DHT22;4725;48.384;8.984;2023-04-06T10:11:43;10.70;85.20
9371;DHT22;4725;48.384;8.984;2023-04-06T10:14:11;11.20;81.80
9371;DHT22;4725;48.384;8.984;2023-04-06T10:16:38;11.50;82.20
9371;DHT22;4725;48.384;8.984;2023-04-06T10:19:12;11.70;79.10
9371;DHT22;4725;48.384;8.984;2023-04-06T10:21:40;11.90;78.20
9371;DHT22;4725;48.384;8.984;2023-04-06T10:24:09;12.00;81.50
9371;DHT22;4725;48.384;8.984;2023-04-06T10:26:37;12.40;79.50
9371;DHT22;4725;48.384;8.984;2023-04-06T10:29:06;12.10;77.70
9371;DHT22;4725;48.384;8.984;2023-04-06T10:31:41;12.10;78.30
9371;DHT22;4725;48.384;8.984;2023-04-06T10:34:09;12.40;77.80
9371;DHT22;4725;48.384;8.984;2023-04-06T10:36:36;12.70;77.90
9371;DHT22;4725;48.384;8.984;2023-04-06T10:39:05;13.30;76.00
9371;DHT22;4725;48.384;8.984;2023-04-06T10:41:33;13.30;75.90
9371;DHT22;4725;48.384;8.984;2023-04-06T10:44:01;11.70;74.90
9371;DHT22;4725;48.384;8.984;2023-04-06T10:46:30;13.90;74.30
9371;DHT22;4725;48.384;8.984;2023-04-06T10:48:58;14.20;73.60
9371;DHT22;4725;48.384;8.984;2023-04-06T10:51:38;14.10;73.50
9371;DHT22;4725;48.384;8.984;2023-04-06T10:54:06;14.30;73.30
9371;DHT22;4725;48.384;8.984;2023-04-06T10:56:36;16.50;78.30
9371;DHT22;4725;48.384;8.984;2023-04-06T10:59:05;14.10;74.00
9371;DHT22;4725;48.384;8.984;2023-04-06T11:01:34;14.10;72.50
9371;DHT22;4725;48.384;8.984;2023-04-06T11:04:01;13.80;73.20
9371;DHT22;4725;48.384;8.984;2023-04-06T11:06:30;13.10;73.30
9371;DHT22;4725;48.384;8.984;2023-04-06T11:08:58;12.80;73.70
9371;DHT22;4725;48.384;8.984;2023-04-06T11:11:26;13.00;76.10
9371;DHT22;4725;48.384;8.984;2023-04-06T11:13:55;13.40;75.00
9371;DHT22;4725;48.384;8.984;2023-04-06T11:16:24;13.40;76.60
9371;DHT22;4725;48.384;8.984;2023-04-06T11:18:54;14.30;76.80
9371;DHT22;4725;48.384;8.984;2023-04-06T11:21:33;14.30;70.60
9371;DHT22;4725;48.384;8.984;2023-04-06T11:24:11;14.00;70.70
9371;DHT22;4725;48.384;8.984;2023-04-06T11:26:39;14.40;74.60
9371;DHT22;4725;48.384;8.984;2023-04-06T11:29:07;15.10;74.00
9371;DHT22;4725;48.384;8.984;2023-04-06T11:31:41;16.50;68.20
9371;DHT22;4725;48.384;8.984;2023-04-06T11:34:18;16.70;69.40
9371;DHT22;4725;48.384;8.984;2023-04-06T11:36:46;15.90;69.40
9371;DHT22;4725;48.384;8.984;2023-04-06T11:39:18;15.50;70.90
9371;DHT22;4725;48.384;8.984;2023-04-06T11:41:48;15.90;70.90
9371;DHT22;4725;48.384;8.984;2023-04-06T11:44:15;16.40;68.30
9371;DHT22;4725;48.384;8.984;2023-04-06T11:46:51;16.20;71.70
9371;DHT22;4725;48.384;8.984;2023-04-06T11:49:20;15.40;67.90
9371;DHT22;4725;48.384;8.984;2023-04-06T11:51:47;14.50;72.30
9371;DHT22;4725;48.384;8.984;2023-04-06T11:54:14;14.10;73.20
9371;DHT22;4725;48.384;8.984;2023-04-06T11:56:46;14.60;68.60
9371;DHT22;4725;48.384;8.984;2023-04-06T11:59:13;16.40;68.10
9371;DHT22;4725;48.384;8.984;2023-04-06T12:01:45;16.60;65.90
9371;DHT22;4725;48.384;8.984;2023-04-06T12:04:12;17.10;64.80
9371;DHT22;4725;48.384;8.984;2023-04-06T12:06:40;17.30;65.00
9371;DHT22;4725;48.384;8.984;2023-04-06T12:09:07;16.40;63.40
9371;DHT22;4725;48.384;8.984;2023-04-06T12:11:34;16.20;64.80
9371;DHT22;4725;48.384;8.984;2023-04-06T12:14:01;16.60;64.60
9371;DHT22;4725;48.384;8.984;2023-04-06T12:16:30;15.30;67.80
9371;DHT22;4725;48.384;8.984;2023-04-06T12:18:57;15.90;63.20
9371;DHT22;4725;48.384;8.984;2023-04-06T12:21:24;17.10;64.60
9371;DHT22;4725;48.384;8.984;2023-04-06T12:23:52;17.80;64.40
9371;DHT22;4725;48.384;8.984;2023-04-06T12:26:19;18.30;63.70
9371;DHT22;4725;48.384;8.984;2023-04-06T12:28:46;19.80;60.90
9371;DHT22;4725;48.384;8.984;2023-04-06T12:31:17;19.10;59.50
9371;DHT22;4725;48.384;8.984;2023-04-06T12:33:47;19.00;59.20
9371;DHT22;4725;48.384;8.984;2023-04-06T12:36:14;19.80;60.10
9371;DHT22;4725;48.384;8.984;2023-04-06T12:38:44;19.60;58.70
9371;DHT22;4725;48.384;8.984;2023-04-06T12:41:12;19.50;59.50
9371;DHT22;4725;48.384;8.984;2023-04-06T12:43:41;19.90;58.90
9371;DHT22;4725;48.384;8.984;2023-04-06T12:46:08;20.50;57.10
9371;DHT22;4725;48.384;8.984;2023-04-06T12:48:36;18.00;59.10
9371;DHT22;4725;48.384;8.984;2023-04-06T12:51:04;17.70;60.20
9371;DHT22;4725;48.384;8.984;2023-04-06T12:53:32;17.60;59.60
9371;DHT22;4725;48.384;8.984;2023-04-06T12:56:00;17.10;62.20
9371;DHT22;4725;48.384;8.984;2023-04-06T12:58:30;16.60;58.60
9371;DHT22;4725;48.384;8.984;2023-04-06T13:00:58;15.70;59.90
9371;DHT22;4725;48.384;8.984;2023-04-06T13:03:28;15.80;61.80
9371;DHT22;4725;48.384;8.984;2023-04-06T13:05:56;17.90;59.90
9371;DHT22;4725;48.384;8.984;2023-04-06T13:08:23;20.20;57.80
9371;DHT22;4725;48.384;8.984;2023-04-06T13:10:51;20.20;58.30
9371;DHT22;4725;48.384;8.984;2023-04-06T13:13:25;20.70;54.90
9371;DHT22;4725;48.384;8.984;2023-04-06T13:15:54;21.60;54.70
9371;DHT22;4725;48.384;8.984;2023-04-06T13:18:22;20.50;55.60
9371;DHT22;4725;48.384;8.984;2023-04-06T13:20:49;19.10;54.90
9371;DHT22;4725;48.384;8.984;2023-04-06T13:23:16;16.00;55.90
9371;DHT22;4725;48.384;8.984;2023-04-06T13:25:43;16.50;59.50
9371;DHT22;4725;48.384;8.984;2023-04-06T13:28:10;16.20;59.60
9371;DHT22;4725;48.384;8.984;2023-04-06T13:30:38;16.50;56.60
9371;DHT22;4725;48.384;8.984;2023-04-06T13:33:06;16.80;56.90
9371;DHT22;4725;48.384;8.984;2023-04-06T13:35:33;16.60;56.70
9371;DHT22;4725;48.384;8.984;2023-04-06T13:38:01;17.10;57.80
9371;DHT22;4725;48.384;8.984;2023-04-06T13:40:28;17.50;55.20
9371;DHT22;4725;48.384;8.984;2023-04-06T13:42:55;16.80;56.40
9371;DHT22;4725;48.384;8.984;2023-04-06T13:45:22;16.80;57.60
9371;DHT22;4725;48.384;8.984;2023-04-06T13:47:49;17.20;58.00
9371;DHT22;4725;48.384;8.984;2023-04-06T13:50:19;17.60;55.60
9371;DHT22;4725;48.384;8.984;2023-04-06T13:52:46;18.00;55.70
9371;DHT22;4725;48.384;8.984;2023-04-06T13:55:13;18.00;54.80
9371;DHT22;4725;48.384;8.984;2023-04-06T13:57:41;18.20;56.00
9371;DHT22;4725;48.384;8.984;2023-04-06T14:00:09;17.20;54.40
9371;DHT22;4725;48.384;8.984;2023-04-06T14:02:37;16.90;56.50
9371;DHT22;4725;48.384;8.984;2023-04-06T14:05:04;17.00;58.20
9371;DHT22;4725;48.384;8.984;2023-04-06T14:07:33;16.10;58.50
9371;DHT22;4725;48.384;8.984;2023-04-06T14:10:00;15.20;59.10
9371;DHT22;4725;48.384;8.984;2023-04-06T14:12:26;14.50;59.60
9371;DHT22;4725;48.384;8.984;2023-04-06T14:14:53;14.00;61.20
9371;DHT22;4725;48.384;8.984;2023-04-06T14:17:20;13.30;63.00
9371;DHT22;4725;48.384;8.984;2023-04-06T14:19:47;13.20;62.20
9371;DHT22;4725;48.384;8.984;2023-04-06T14:22:14;13.80;62.70
9371;DHT22;4725;48.384;8.984;2023-04-06T14:24:43;15.40;62.30
9371;DHT22;4725;48.384;8.984;2023-04-06T14:27:10;17.00;55.40
9371;DHT22;4725;48.384;8.984;2023-04-06T14:29:38;17.90;51.80
9371;DHT22;4725;48.384;8.984;2023-04-06T14:32:05;18.10;53.40
9371;DHT22;4725;48.384;8.984;2023-04-06T14:34:31;18.60;52.70
9371;DHT22;4725;48.384;8.984;2023-04-06T14:36:58;18.20;53.20
9371;DHT22;4725;48.384;8.984;2023-04-06T14:39:25;17.70;54.30
9371;DHT22;4725;48.384;8.984;2023-04-06T14:44:21;17.40;55.50
9371;DHT22;4725;48.384;8.984;2023-04-06T14:46:47;17.00;54.70
9371;DHT22;4725;48.384;8.984;2023-04-06T14:49:15;16.70;56.00
9371;DHT22;4725;48.384;8.984;2023-04-06T14:54:09;17.00;56.00
9371;DHT22;4725;48.384;8.984;2023-04-06T14:56:36;16.30;53.70
9371;DHT22;4725;48.384;8.984;2023-04-06T14:59:05;15.70;56.00
9371;DHT22;4725;48.384;8.984;2023-04-06T15:01:34;15.80;56.70
9371;DHT22;4725;48.384;8.984;2023-04-06T15:04:02;15.40;56.40
9371;DHT22;4725;48.384;8.984;2023-04-06T15:06:29;15.40;57.40
9371;DHT22;4725;48.384;8.984;2023-04-06T15:08:56;15.30;58.40
9371;DHT22;4725;48.384;8.984;2023-04-06T15:11:23;15.30;60.00
9371;DHT22;4725;48.384;8.984;2023-04-06T15:13:50;14.60;59.30
9371;DHT22;4725;48.384;8.984;2023-04-06T15:16:18;14.40;58.70
9371;DHT22;4725;48.384;8.984;2023-04-06T15:18:45;14.40;60.80
9371;DHT22;4725;48.384;8.984;2023-04-06T15:21:12;14.40;61.60
9371;DHT22;4725;48.384;8.984;2023-04-06T15:23:39;14.30;58.90
9371;DHT22;4725;48.384;8.984;2023-04-06T15:26:06;13.90;60.30
9371;DHT22;4725;48.384;8.984;2023-04-06T15:28:33;14.60;60.40
9371;DHT22;4725;48.384;8.984;2023-04-06T15:30:59;14.60;60.80
9371;DHT22;4725;48.384;8.984;2023-04-06T15:33:32;14.90;60.50
9371;DHT22;4725;48.384;8.984;2023-04-06T15:36:02;14.90;60.20
9371;DHT22;4725;48.384;8.984;2023-04-06T15:38:29;14.30;59.00
9371;DHT22;4725;48.384;8.984;2023-04-06T15:40:56;14.30;59.70
9371;DHT22;4725;48.384;8.984;2023-04-06T15:43:23;14.30;60.70
9371;DHT22;4725;48.384;8.984;2023-04-06T15:45:50;14.50;59.30
9371;DHT22;4725;48.384;8.984;2023-04-06T15:48:18;14.40;60.40
9371;DHT22;4725;48.384;8.984;2023-04-06T15:50:46;14.40;60.00
9371;DHT22;4725;48.384;8.984;2023-04-06T15:53:13;14.40;60.00
9371;DHT22;4725;48.384;8.984;2023-04-06T15:55:40;14.40;61.20
9371;DHT22;4725;48.384;8.984;2023-04-06T15:58:07;14.30;60.60
9371;DHT22;4725;48.384;8.984;2023-04-06T16:00:34;14.40;59.80
9371;DHT22;4725;48.384;8.984;2023-04-06T16:03:01;14.30;61.10
9371;DHT22;4725;48.384;8.984;2023-04-06T16:05:28;13.90;62.00
9371;DHT22;4725;48.384;8.984;2023-04-06T16:07:57;13.80;62.60
9371;DHT22;4725;48.384;8.984;2023-04-06T16:10:24;13.20;62.60
9371;DHT22;4725;48.384;8.984;2023-04-06T16:12:51;13.00;63.50
9371;DHT22;4725;48.384;8.984;2023-04-06T16:15:18;13.10;64.70
9371;DHT22;4725;48.384;8.984;2023-04-06T16:17:45;12.90;65.80
9371;DHT22;4725;48.384;8.984;2023-04-06T16:20:12;13.00;64.30
9371;DHT22;4725;48.384;8.984;2023-04-06T16:22:40;13.00;64.30
9371;DHT22;4725;48.384;8.984;2023-04-06T16:25:09;12.90;65.00
9371;DHT22;4725;48.384;8.984;2023-04-06T16:27:37;12.70;66.50
9371;DHT22;4725;48.384;8.984;2023-04-06T16:30:05;12.40;64.50
9371;DHT22;4725;48.384;8.984;2023-04-06T16:32:32;12.20;65.60